Forside
METAR-TAF:

METAR-TAF

Lufthavne :

Eagle River Union Airport

Eagle River, Wisconsin, USA

Breddekreds: 45-55-54N, længdekreds: 089-16-09W, højde: 501 m

Aktuelle vejr

Denne rapport blev lavet for 29 minutter siden, kl. 03:35 UTC
Vind 7 kt fra østsydøst
Temperatur -7°C
Fugtighed 93%
Tryk 1021 hPa
Sigt: 1.2 km
Overskyet i en højde af 900 ft
sne

METAR: KEGV 180335Z AUTO 12007KT 3/4SM SN OVC009 M07/M08 A3016 RMK AO2 T10671085

Tid: 22:04 (04:04 UTC)


TAF: fraværende

Vejrobservationer og prognoser fra mere end 4000 lufthavne (METAR og TAF).

De gule og røde prikker repræsenterer de meteorologiske stationer.

Flyt musen over at se navnet på stationen.

Så klik over at se vejr observationer og prognoser.

At skifte det kort: Klik på de grønne knapper med et sort kors for at zoome ind; på den grønne knap med en bindestreg for at zoome ud; eller på de grønne pile for tilstødende kort.


METAR-TAF: